createdAt,value
2018-02-12T00:01:07.401Z,94771.39
2018-02-12T00:06:18.202Z,94767.67
2018-02-12T00:08:46.913Z,94773.45
2018-02-12T00:11:14.624Z,94774.48
2018-02-12T00:13:42.335Z,94766.91
2018-02-12T00:16:10.001Z,94773.30
2018-02-12T00:18:39.566Z,94774.59
2018-02-12T00:21:09.302Z,94770.39
2018-02-12T00:23:37.308Z,94776.45
2018-02-12T00:26:06.411Z,94769.27
2018-02-12T00:28:35.228Z,94775.22
2018-02-12T00:31:03.172Z,94776.17
2018-02-12T00:33:31.042Z,94778.31
2018-02-12T00:35:58.809Z,94776.48
2018-02-12T00:38:26.475Z,94774.38
2018-02-12T00:40:54.278Z,94774.89
2018-02-12T00:43:21.996Z,94782.22
2018-02-12T00:45:49.632Z,94771.56
2018-02-12T00:48:17.272Z,94776.80
2018-02-12T00:50:44.981Z,94770.22
2018-02-12T00:53:12.591Z,94778.30
2018-02-12T00:55:41.178Z,94780.98
2018-02-12T00:58:08.809Z,94778.34
2018-02-12T01:00:36.474Z,94778.65
2018-02-12T01:03:04.090Z,94787.00
2018-02-12T01:05:31.744Z,94786.60
2018-02-12T01:07:59.404Z,94782.36
2018-02-12T01:10:27.994Z,94780.22
2018-02-12T01:12:55.663Z,94783.86
2018-02-12T01:15:23.302Z,94785.32
2018-02-12T01:17:50.979Z,94783.42
2018-02-12T01:20:18.718Z,94777.91
2018-02-12T01:22:46.429Z,94780.84
2018-02-12T01:25:14.090Z,94781.23
2018-02-12T01:27:41.735Z,94781.05
2018-02-12T01:30:09.496Z,94785.03
2018-02-12T01:32:37.153Z,94781.19
2018-02-12T01:35:05.336Z,94779.66
2018-02-12T01:37:33.013Z,94773.27
2018-02-12T01:40:00.664Z,94778.26
2018-02-12T01:42:28.425Z,94778.97
2018-02-12T01:44:56.075Z,94777.63
2018-02-12T01:47:24.289Z,94779.72
2018-02-12T01:50:03.706Z,94781.85
2018-02-12T01:52:31.349Z,94788.14
2018-02-12T01:54:59.099Z,94789.09
2018-02-12T01:57:26.791Z,94790.09
2018-02-12T01:59:54.408Z,94792.34
2018-02-12T02:02:25.396Z,94797.72
2018-02-12T02:04:58.419Z,94788.70
2018-02-12T02:07:28.118Z,94796.27
2018-02-12T02:09:57.556Z,94793.92
2018-02-12T02:12:25.289Z,94796.27
2018-02-12T02:14:53.104Z,94802.76
2018-02-12T02:17:20.790Z,94803.34
2018-02-12T02:19:48.439Z,94797.77
2018-02-12T02:22:16.060Z,94802.31
2018-02-12T02:24:44.738Z,94804.21
2018-02-12T02:27:12.449Z,94806.14
2018-02-12T02:29:40.096Z,94812.63
2018-02-12T02:32:09.021Z,94808.83
2018-02-12T02:34:36.621Z,94805.45
2018-02-12T02:37:04.440Z,94806.06
2018-02-12T02:39:35.235Z,94800.68
2018-02-12T02:42:02.880Z,94812.59
2018-02-12T02:44:30.563Z,94808.75
2018-02-12T02:46:58.234Z,94812.70
2018-02-12T02:49:25.914Z,94806.25
2018-02-12T02:51:53.529Z,94809.05
2018-02-12T02:54:21.221Z,94808.81
2018-02-12T02:56:48.915Z,94815.55
2018-02-12T02:59:16.625Z,94808.42
2018-02-12T03:01:44.270Z,94815.66
2018-02-12T03:04:11.891Z,94822.83
2018-02-12T03:06:39.476Z,94815.09
2018-02-12T03:09:07.092Z,94816.28
2018-02-12T03:11:34.774Z,94820.03
2018-02-12T03:14:02.431Z,94821.78
2018-02-12T03:16:30.246Z,94818.53
2018-02-12T03:18:57.875Z,94816.45
2018-02-12T03:21:25.902Z,94816.05
2018-02-12T03:23:53.560Z,94821.22
2018-02-12T03:26:21.224Z,94817.00
2018-02-12T03:28:48.872Z,94815.60
2018-02-12T03:31:16.543Z,94821.54
2018-02-12T03:33:44.243Z,94832.09
2018-02-12T03:36:12.126Z,94816.55
2018-02-12T03:38:39.814Z,94812.12
2018-02-12T03:41:07.469Z,94799.05
2018-02-12T03:43:35.199Z,94816.11
2018-02-12T03:46:02.906Z,94810.72
2018-02-12T03:48:30.568Z,94810.17
2018-02-12T03:50:58.260Z,94811.67
2018-02-12T03:53:25.915Z,94819.75
2018-02-12T03:55:53.607Z,94811.83
2018-02-12T03:58:21.293Z,94806.05
2018-02-12T04:00:49.583Z,94815.27
2018-02-12T04:03:17.216Z,94814.87
2018-02-12T04:05:44.906Z,94811.09
2018-02-12T04:08:12.561Z,94815.88
2018-02-12T04:10:40.247Z,94813.58
2018-02-12T04:13:07.994Z,94815.48
2018-02-12T04:15:35.615Z,94813.19
2018-02-12T04:18:03.263Z,94819.91
2018-02-12T04:20:30.933Z,94818.17
2018-02-12T04:22:58.633Z,94821.26
2018-02-12T04:25:26.409Z,94818.06
2018-02-12T04:27:54.064Z,94814.69
2018-02-12T04:30:21.785Z,94818.06
2018-02-12T04:32:49.498Z,94812.73
2018-02-12T04:35:17.132Z,94819.36
2018-02-12T04:37:44.969Z,94823.00
2018-02-12T04:40:12.692Z,94821.97
2018-02-12T04:42:41.998Z,94819.78
2018-02-12T04:45:09.629Z,94826.62
2018-02-12T04:47:37.312Z,94821.92
2018-02-12T04:50:05.010Z,94824.41
2018-02-12T04:52:32.713Z,94819.73
2018-02-12T04:55:00.399Z,94821.71
2018-02-12T04:57:28.266Z,94819.34
2018-02-12T04:59:55.928Z,94826.25
2018-02-12T05:02:23.592Z,94824.32
2018-02-12T05:04:51.266Z,94824.91
2018-02-12T05:07:18.941Z,94825.86
2018-02-12T05:09:46.666Z,94830.20
2018-02-12T05:12:14.306Z,94832.00
2018-02-12T05:14:41.905Z,94832.34
2018-02-12T05:17:09.985Z,94831.95
2018-02-12T05:19:37.653Z,94841.76
2018-02-12T05:22:05.562Z,94839.97
2018-02-12T05:24:33.201Z,94837.98
2018-02-12T05:27:00.983Z,94855.29
2018-02-12T05:29:28.611Z,94852.41
2018-02-12T05:31:56.480Z,94857.41
2018-02-12T05:34:24.182Z,94859.30
2018-02-12T05:36:51.872Z,94875.70
2018-02-12T05:39:19.625Z,94864.85
2018-02-12T05:41:47.305Z,94870.33
2018-02-12T05:44:15.028Z,94876.06
2018-02-12T05:46:44.602Z,94878.50
2018-02-12T05:49:12.460Z,94881.59
2018-02-12T05:51:40.138Z,94876.00
2018-02-12T05:54:09.058Z,94876.99
2018-02-12T05:56:36.773Z,94885.92
2018-02-12T05:59:04.495Z,94887.50
2018-02-12T06:01:32.285Z,94884.00
2018-02-12T06:03:59.931Z,94885.73
2018-02-12T06:06:27.630Z,94895.50
2018-02-12T06:08:55.282Z,94893.72
2018-02-12T06:11:22.961Z,94892.52
2018-02-12T06:13:50.655Z,94892.72
2018-02-12T06:16:18.315Z,94893.72
2018-02-12T06:18:46.005Z,94892.92
2018-02-12T06:21:13.654Z,94899.65
2018-02-12T06:23:41.393Z,94905.73
2018-02-12T06:26:09.083Z,94910.73
2018-02-12T06:28:37.251Z,94910.63
2018-02-12T06:31:04.948Z,94911.72
2018-02-12T06:33:33.222Z,94909.78
2018-02-12T06:36:00.984Z,94916.81
2018-02-12T06:38:29.399Z,94916.35
2018-02-12T06:40:57.246Z,94910.11
2018-02-12T06:43:24.840Z,94888.77
2018-02-12T06:45:52.645Z,94906.60
2018-02-12T06:48:20.403Z,94910.45
2018-02-12T06:50:48.180Z,94913.84
2018-02-12T06:53:15.955Z,94914.05
2018-02-12T06:55:43.664Z,94913.33
2018-02-12T06:58:11.324Z,94922.34
2018-02-12T07:00:38.991Z,94913.15
2018-02-12T07:03:06.648Z,94923.98
2018-02-12T07:05:34.289Z,94923.06
2018-02-12T07:08:01.958Z,94921.53
2018-02-12T07:10:29.564Z,94955.50
2018-02-12T07:12:57.263Z,94929.27
2018-02-12T07:15:24.884Z,94933.18
2018-02-12T07:17:52.538Z,94930.48
2018-02-12T07:20:20.175Z,94929.82
2018-02-12T07:22:47.827Z,94933.58
2018-02-12T07:25:15.549Z,94932.66
2018-02-12T07:27:43.196Z,94930.39
2018-02-12T07:30:10.970Z,94931.02
2018-02-12T07:32:38.661Z,94927.01
2018-02-12T07:35:06.346Z,94924.43
2018-02-12T07:37:33.968Z,94926.72
2018-02-12T07:40:01.608Z,94919.36
2018-02-12T07:42:29.262Z,94925.00
2018-02-12T07:44:57.832Z,94922.88
2018-02-12T07:47:25.570Z,94919.34
2018-02-12T07:49:53.167Z,94925.36
2018-02-12T07:52:20.974Z,94900.44
2018-02-12T07:54:48.677Z,94933.41
2018-02-12T07:57:16.312Z,94925.12
2018-02-12T07:59:43.990Z,94934.77
2018-02-12T08:02:11.638Z,94935.48
2018-02-12T08:04:39.295Z,94942.87
2018-02-12T08:07:07.043Z,94939.22
2018-02-12T08:09:34.712Z,94931.85
2018-02-12T08:12:02.401Z,94935.88
2018-02-12T08:14:30.012Z,94937.63
2018-02-12T08:16:57.719Z,94944.58
2018-02-12T08:19:25.463Z,94939.80
2018-02-12T08:21:53.574Z,94939.52
2018-02-12T08:24:21.255Z,94934.24
2018-02-12T08:26:48.932Z,94934.28
2018-02-12T08:29:16.601Z,94939.77
2018-02-12T08:31:44.270Z,94937.77
2018-02-12T08:34:11.946Z,94943.95
2018-02-12T08:36:39.619Z,94948.08
2018-02-12T08:39:07.305Z,94944.24
2018-02-12T08:41:34.967Z,94961.20
2018-02-12T08:44:02.695Z,94943.15
2018-02-12T08:46:30.325Z,94935.28
2018-02-12T08:48:58.035Z,94942.42
2018-02-12T08:51:25.703Z,94939.66
2018-02-12T08:53:53.408Z,94943.66
2018-02-12T08:56:21.049Z,94944.81
2018-02-12T08:58:48.870Z,94949.50
2018-02-12T09:01:16.600Z,94940.28
2018-02-12T09:03:44.256Z,94939.09
2018-02-12T09:06:11.960Z,94948.16
2018-02-12T09:08:39.658Z,94948.03
2018-02-12T09:11:07.321Z,94953.00
2018-02-12T09:13:35.082Z,94949.89
2018-02-12T09:16:02.705Z,94957.16
2018-02-12T09:18:30.349Z,94954.75
2018-02-12T09:20:58.054Z,94955.27
2018-02-12T09:23:25.688Z,94951.85
2018-02-12T09:25:53.332Z,94953.75
2018-02-12T09:28:20.986Z,94967.53
2018-02-12T09:30:48.675Z,94962.48
2018-02-12T09:33:16.494Z,94960.54
2018-02-12T09:35:44.114Z,94953.67
2018-02-12T09:38:11.759Z,94957.73
2018-02-12T09:40:39.410Z,94958.84
2018-02-12T09:43:07.070Z,94956.73
2018-02-12T09:45:34.728Z,94959.55
2018-02-12T09:48:02.542Z,94957.31
2018-02-12T09:50:30.386Z,94956.28
2018-02-12T09:52:58.060Z,94951.28
2018-02-12T09:55:25.688Z,94951.92
2018-02-12T09:57:53.326Z,94951.67
2018-02-12T10:00:21.033Z,94949.33
2018-02-12T10:02:48.702Z,94942.68
2018-02-12T10:05:16.360Z,94946.96
2018-02-12T10:07:44.040Z,94941.70
2018-02-12T10:10:11.919Z,94940.56
2018-02-12T10:12:39.647Z,94947.66
2018-02-12T10:15:07.315Z,94945.20
2018-02-12T10:17:35.055Z,94945.92
2018-02-12T10:20:02.741Z,94948.27
2018-02-12T10:22:30.376Z,94937.97
2018-02-12T10:24:58.071Z,94943.06
2018-02-12T10:27:25.709Z,94943.01
2018-02-12T10:29:53.380Z,94931.65
2018-02-12T10:32:21.052Z,94934.45
2018-02-12T10:34:48.677Z,94931.92
2018-02-12T10:37:16.373Z,94928.49
2018-02-12T10:39:44.056Z,94922.25
2018-02-12T10:42:11.698Z,94926.16
2018-02-12T10:44:39.384Z,94924.02
2018-02-12T10:47:07.022Z,94923.13
2018-02-12T10:49:35.536Z,94912.78
2018-02-12T10:52:03.185Z,94928.68
2018-02-12T10:54:30.798Z,94925.19
2018-02-12T10:56:58.523Z,94924.58
2018-02-12T10:59:26.211Z,94928.03
2018-02-12T11:01:53.915Z,94920.84
2018-02-12T11:04:21.643Z,94923.80
2018-02-12T11:06:49.343Z,94920.80
2018-02-12T11:09:16.980Z,94924.16
2018-02-12T11:14:35.603Z,94927.31
2018-02-12T11:17:03.260Z,94920.03
2018-02-12T11:19:30.907Z,94906.47
2018-02-12T11:21:58.559Z,94905.73
2018-02-12T11:24:26.202Z,94921.16
2018-02-12T11:26:53.883Z,94912.54
2018-02-12T11:29:21.544Z,94914.96
2018-02-12T11:31:49.246Z,94908.40
2018-02-12T11:34:16.909Z,94903.73
2018-02-12T11:36:44.583Z,94904.31
2018-02-12T11:39:12.242Z,94903.25
2018-02-12T11:41:40.018Z,94907.26
2018-02-12T11:44:07.724Z,94908.94
2018-02-12T11:46:35.399Z,94899.08
2018-02-12T11:49:03.048Z,94900.13
2018-02-12T11:51:30.741Z,94888.70
2018-02-12T11:53:58.369Z,94900.91
2018-02-12T11:56:26.103Z,94891.70
2018-02-12T11:58:53.777Z,94890.91
2018-02-12T12:01:21.493Z,94887.41
2018-02-12T12:03:49.168Z,94886.28
2018-02-12T12:06:16.830Z,94889.38
2018-02-12T12:08:44.544Z,94883.28
2018-02-12T12:11:12.225Z,94882.03
2018-02-12T12:13:39.903Z,94870.46
2018-02-12T12:16:07.556Z,94887.61
2018-02-12T12:18:35.213Z,94875.67
2018-02-12T12:21:02.895Z,94889.13
2018-02-12T12:23:30.935Z,94888.20
2018-02-12T12:25:58.604Z,94886.61
2018-02-12T12:28:26.277Z,94891.63
2018-02-12T12:30:53.886Z,94897.20
2018-02-12T12:33:21.586Z,94885.35
2018-02-12T12:35:49.353Z,94895.63
2018-02-12T12:38:17.027Z,94893.50
2018-02-12T12:40:44.776Z,94888.47
2018-02-12T12:43:12.519Z,94892.45
2018-02-12T12:45:40.312Z,94888.70
2018-02-12T12:48:08.042Z,94878.20
2018-02-12T12:50:35.713Z,94884.70
2018-02-12T12:53:03.344Z,94880.68
2018-02-12T12:55:30.987Z,94864.59
2018-02-12T12:57:58.636Z,94872.05
2018-02-12T13:00:26.352Z,94875.31
2018-02-12T13:02:56.396Z,94871.69
2018-02-12T13:05:24.058Z,94875.12
2018-02-12T13:07:51.731Z,94867.93
2018-02-12T13:10:19.411Z,94876.90
2018-02-12T13:12:47.129Z,94877.36
2018-02-12T13:15:14.789Z,94874.80
2018-02-12T13:17:42.455Z,94877.99
2018-02-12T13:20:10.129Z,94866.92
2018-02-12T13:22:37.809Z,94877.59
2018-02-12T13:25:05.552Z,94879.13
2018-02-12T13:27:33.251Z,94866.79
2018-02-12T13:30:00.891Z,94881.61
2018-02-12T13:32:28.543Z,94877.58
2018-02-12T13:34:56.947Z,94879.23
2018-02-12T13:37:24.593Z,94876.16
2018-02-12T13:39:52.259Z,94872.33
2018-02-12T13:42:19.927Z,94888.56
2018-02-12T13:47:19.308Z,94885.80
2018-02-12T13:49:47.005Z,94884.52
2018-02-12T13:52:14.681Z,94886.97
2018-02-12T13:54:42.395Z,94888.13
2018-02-12T13:57:10.041Z,94880.66
2018-02-12T13:59:37.729Z,94879.33
2018-02-12T14:02:05.425Z,94883.93
2018-02-12T14:04:33.073Z,94881.03
2018-02-12T14:07:02.278Z,94889.62
2018-02-12T14:12:01.916Z,94883.72
2018-02-12T14:14:29.576Z,94888.83
2018-02-12T14:16:57.245Z,94888.98
2018-02-12T14:19:24.915Z,94886.16
2018-02-12T14:21:52.595Z,94879.85
2018-02-12T14:24:20.271Z,94888.78
2018-02-12T14:26:47.907Z,94893.29
2018-02-12T14:29:15.761Z,94886.94
2018-02-12T14:31:43.467Z,94891.75
2018-02-12T14:34:11.134Z,94889.42
2018-02-12T14:36:38.768Z,94901.86
2018-02-12T14:39:06.459Z,94898.06
2018-02-12T14:41:34.171Z,94898.91
2018-02-12T14:44:01.903Z,94900.64
2018-02-12T14:46:29.553Z,94904.23
2018-02-12T14:48:57.351Z,94893.38
2018-02-12T14:51:24.991Z,94906.84
2018-02-12T14:53:53.635Z,94913.45
2018-02-12T14:56:21.403Z,94918.03
2018-02-12T14:58:49.053Z,94917.64
2018-02-12T15:01:16.748Z,94915.59
2018-02-12T15:03:44.414Z,94915.51
2018-02-12T15:06:12.042Z,94917.86
2018-02-12T15:08:40.408Z,94899.63
2018-02-12T15:11:08.043Z,94917.27
2018-02-12T15:13:35.664Z,94914.95
2018-02-12T15:16:03.274Z,94912.52
2018-02-12T15:18:31.565Z,94915.02
2018-02-12T15:20:59.552Z,94909.53
2018-02-12T15:23:27.904Z,94912.80
2018-02-12T15:25:55.529Z,94913.59
2018-02-12T15:28:23.835Z,94917.30
2018-02-12T15:30:52.331Z,94925.21
2018-02-12T15:33:20.006Z,94920.10
2018-02-12T15:35:48.649Z,94927.81
2018-02-12T15:38:16.280Z,94925.94
2018-02-12T15:40:43.872Z,94927.09
2018-02-12T15:43:12.320Z,94931.83
2018-02-12T15:45:39.990Z,94937.07
2018-02-12T15:48:07.564Z,94938.20
2018-02-12T15:50:35.169Z,94944.75
2018-02-12T15:53:04.199Z,94944.05
2018-02-12T15:55:31.818Z,94942.25
2018-02-12T15:57:59.484Z,94940.62
2018-02-12T16:00:27.143Z,94930.81
2018-02-12T16:02:54.739Z,94947.20
2018-02-12T16:05:22.674Z,94951.44
2018-02-12T16:07:50.300Z,94954.96
2018-02-12T16:10:18.073Z,94952.47
2018-02-12T16:12:45.676Z,94957.16
2018-02-12T16:15:13.305Z,94952.67
2018-02-12T16:17:41.633Z,94963.17
2018-02-12T16:20:09.341Z,94963.52
2018-02-12T16:22:36.957Z,94952.70
2018-02-12T16:25:04.625Z,94954.44
2018-02-12T16:27:32.335Z,94958.67
2018-02-12T16:29:59.995Z,94961.37
2018-02-12T16:32:27.582Z,94963.39
2018-02-12T16:34:56.110Z,94961.98
2018-02-12T16:37:23.789Z,94962.58
2018-02-12T16:39:51.424Z,94961.67
2018-02-12T16:42:19.027Z,94943.03
2018-02-12T16:44:46.692Z,94967.88
2018-02-12T16:47:15.375Z,94968.73
2018-02-12T16:49:43.026Z,94974.88
2018-02-12T16:52:10.612Z,94977.97
2018-02-12T16:54:38.499Z,94973.73
2018-02-12T16:57:06.554Z,94976.66
2018-02-12T16:59:35.001Z,94975.87
2018-02-12T17:02:03.003Z,94981.00
2018-02-12T17:04:33.392Z,94969.67
2018-02-12T17:07:02.347Z,94983.29
2018-02-12T17:09:31.956Z,94986.28
2018-02-12T17:12:03.886Z,94984.34
2018-02-12T17:17:11.970Z,94990.31
2018-02-12T17:19:40.887Z,94988.72
2018-02-12T17:22:09.769Z,94988.17
2018-02-12T17:24:38.300Z,94980.71
2018-02-12T17:27:06.911Z,94999.23
2018-02-12T17:29:37.519Z,94991.84
2018-02-12T17:32:06.107Z,94991.11
2018-02-12T17:34:34.634Z,94990.91
2018-02-12T17:37:02.404Z,94990.06
2018-02-12T17:39:30.127Z,94995.04
2018-02-12T17:41:57.728Z,94995.13
2018-02-12T17:44:25.553Z,94988.10
2018-02-12T17:46:54.153Z,95005.58
2018-02-12T17:49:22.740Z,94991.89
2018-02-12T17:51:50.571Z,95001.86
2018-02-12T17:54:20.699Z,94993.18
2018-02-12T17:56:48.612Z,94990.16
2018-02-12T17:59:17.236Z,94993.97
2018-02-12T18:01:46.006Z,94995.53
2018-02-12T18:04:13.947Z,94993.42
2018-02-12T18:06:41.731Z,94991.98
2018-02-12T18:09:13.758Z,94995.32
2018-02-12T18:11:41.539Z,95005.64
2018-02-12T18:14:10.639Z,95003.29
2018-02-12T18:16:38.495Z,95003.80
2018-02-12T18:19:06.302Z,95005.75
2018-02-12T18:21:34.814Z,95008.70
2018-02-12T18:24:03.146Z,95008.05
2018-02-12T18:26:30.921Z,95005.70
2018-02-12T18:28:58.866Z,95008.94
2018-02-12T18:31:28.029Z,95015.23
2018-02-12T18:33:57.210Z,95015.36
2018-02-12T18:36:25.829Z,95013.03
2018-02-12T18:38:53.778Z,95017.30
2018-02-12T18:41:22.214Z,95010.67
2018-02-12T18:43:50.025Z,95016.20
2018-02-12T18:46:17.873Z,95018.64
2018-02-12T18:48:46.512Z,95018.80
2018-02-12T18:51:14.131Z,95019.29
2018-02-12T18:53:42.663Z,95022.93
2018-02-12T18:56:11.175Z,95020.58
2018-02-12T18:58:38.835Z,95020.73
2018-02-12T19:01:07.368Z,95022.88
2018-02-12T19:03:35.580Z,95023.76
2018-02-12T19:06:04.655Z,95029.30
2018-02-12T19:08:32.611Z,95026.39
2018-02-12T19:11:00.266Z,95028.38
2018-02-12T19:13:27.968Z,95015.07
2018-02-12T19:15:55.614Z,95028.59
2018-02-12T19:18:23.456Z,95034.22
2018-02-12T19:20:51.406Z,95034.16
2018-02-12T19:23:19.090Z,95036.06
2018-02-12T19:25:47.578Z,95038.35
2018-02-12T19:28:15.245Z,95037.95
2018-02-12T19:30:44.122Z,95034.08
2018-02-12T19:33:11.686Z,95036.16
2018-02-12T19:35:39.427Z,95035.70
2018-02-12T19:38:07.266Z,95038.78
2018-02-12T19:40:35.202Z,95037.66
2018-02-12T19:43:02.913Z,95036.98
2018-02-12T19:45:31.856Z,95035.00
2018-02-12T19:48:00.911Z,95049.98
2018-02-12T19:50:28.774Z,95033.33
2018-02-12T19:52:56.478Z,95043.75
2018-02-12T19:55:24.510Z,95039.66
2018-02-12T19:57:52.811Z,95037.91
2018-02-12T20:00:23.220Z,95038.73
2018-02-12T20:02:51.391Z,95040.33
2018-02-12T20:05:19.323Z,95047.55
2018-02-12T20:07:47.077Z,95049.31
2018-02-12T20:10:14.698Z,95051.45
2018-02-12T20:12:43.216Z,95043.88
2018-02-12T20:15:10.846Z,95039.14
2018-02-12T20:17:38.606Z,95049.71
2018-02-12T20:20:06.376Z,95042.38
2018-02-12T20:22:33.982Z,95046.81
2018-02-12T20:25:01.613Z,95053.19
2018-02-12T20:27:29.152Z,95054.14
2018-02-12T20:29:56.730Z,95049.34
2018-02-12T20:32:24.345Z,95060.19
2018-02-12T20:34:51.936Z,95069.08
2018-02-12T20:37:19.536Z,95059.52
2018-02-12T20:39:47.139Z,95061.41
2018-02-12T20:42:14.918Z,95060.74
2018-02-12T20:44:42.520Z,95064.28
2018-02-12T20:47:10.144Z,95060.74
2018-02-12T20:49:37.759Z,95068.08
2018-02-12T20:52:05.369Z,95068.31
2018-02-12T20:54:33.005Z,95081.03
2018-02-12T20:57:00.608Z,95080.94
2018-02-12T20:59:28.380Z,95073.12
2018-02-12T21:01:55.978Z,95067.80
2018-02-12T21:04:23.770Z,95071.03
2018-02-12T21:06:51.327Z,95079.84
2018-02-12T21:09:18.972Z,95079.75
2018-02-12T21:11:46.542Z,95077.06
2018-02-12T21:14:14.884Z,95078.73
2018-02-12T21:16:42.489Z,95082.92
2018-02-12T21:19:10.104Z,95076.39
2018-02-12T21:21:37.670Z,95081.09
2018-02-12T21:24:05.234Z,95079.78
2018-02-12T21:26:32.834Z,95075.25
2018-02-12T21:29:00.391Z,95083.34
2018-02-12T21:31:27.998Z,95084.56
2018-02-12T21:33:55.601Z,95081.50
2018-02-12T21:36:23.412Z,95081.66
2018-02-12T21:38:50.967Z,95084.77
2018-02-12T21:41:18.582Z,95086.66
2018-02-12T21:43:46.185Z,95086.29
2018-02-12T21:46:13.777Z,95087.23
2018-02-12T21:48:41.533Z,95083.51
2018-02-12T21:51:09.128Z,95090.09
2018-02-12T21:53:36.727Z,95084.48
2018-02-12T21:56:04.330Z,95091.95
2018-02-12T21:58:32.086Z,95087.69
2018-02-12T22:00:59.680Z,95090.78
2018-02-12T22:03:27.251Z,95092.98
2018-02-12T22:05:54.881Z,95095.29
2018-02-12T22:08:22.511Z,95093.62
2018-02-12T22:10:50.095Z,95097.19
2018-02-12T22:13:17.684Z,95098.81
2018-02-12T22:15:45.229Z,95098.27
2018-02-12T22:18:13.552Z,95102.38
2018-02-12T22:20:41.117Z,95105.80
2018-02-12T22:23:08.754Z,95101.13
2018-02-12T22:25:36.348Z,95106.52
2018-02-12T22:28:03.991Z,95098.70
2018-02-12T22:30:31.613Z,95111.17
2018-02-12T22:32:59.620Z,95107.56
2018-02-12T22:35:27.340Z,95117.11
2018-02-12T22:37:54.938Z,95118.45
2018-02-12T22:40:22.511Z,95117.29
2018-02-12T22:42:50.167Z,95106.80
2018-02-12T22:45:17.768Z,95120.75
2018-02-12T22:47:46.172Z,95127.08
2018-02-12T22:50:13.806Z,95118.33
2018-02-12T22:52:41.365Z,95084.57
2018-02-12T22:55:08.973Z,95119.03
2018-02-12T22:57:36.574Z,95120.77
2018-02-12T23:00:06.578Z,95121.25
2018-02-12T23:02:34.212Z,95119.84
2018-02-12T23:05:02.039Z,95112.02
2018-02-12T23:07:29.854Z,95113.36
2018-02-12T23:09:58.097Z,95121.95
2018-02-12T23:12:26.496Z,95119.12
2018-02-12T23:14:54.294Z,95114.78
2018-02-12T23:17:22.596Z,95123.24
2018-02-12T23:19:50.157Z,95126.39
2018-02-12T23:22:18.226Z,95120.16
2018-02-12T23:24:45.848Z,95117.48
2018-02-12T23:27:13.484Z,95124.66
2018-02-12T23:29:41.230Z,95112.59
2018-02-12T23:32:09.169Z,95117.34
2018-02-12T23:34:36.810Z,95123.41
2018-02-12T23:37:04.428Z,95123.08
2018-02-12T23:39:32.228Z,95126.09
2018-02-12T23:41:59.783Z,95124.42
2018-02-12T23:44:27.953Z,95125.45
2018-02-12T23:46:55.563Z,95129.41
2018-02-12T23:49:23.204Z,95126.64
2018-02-12T23:51:50.785Z,95131.77
2018-02-12T23:54:25.271Z,95129.01
2018-02-12T23:56:53.188Z,95135.72
2018-02-12T23:59:20.948Z,95135.72
